Latest Weather Observations for Roma

IDQ60801

Issued at 9:21 am EST Monday 23 April 2018 (issued every 10 minutes, with the page automatically refreshed every 10 minutes)

About weather observations | Map of weather stations | Latest weather observations for QLD | Other Formats
Station Details ID: 043091 Name: ROMA AIRPORT Lat: -26.55 Lon: 148.77 Height: 307.38 m
Data from the previous 72 hours. | See also: Recent months at Roma
Date/Time
EST
Temp
°C
App
Temp
°C
Dew
Point
°C
Rel
Hum
%
Delta-T
°C
Wind Press
QNH
hPa
Press
MSL
hPa
Rain since
9am
mm
Dir  Spd
km/h
Gust
km/h
Spd
kts
Gust
kts
23/09:00am 21.6 21.0 12.2 55 5.4 N 7 11 4 6 1019.3 1018.2 0.0
23/08:30am 19.7 18.9 11.2 58 4.7 NE 6 9 3 5 1019.2 1018.1 0.0
23/08:00am 16.4 15.2 10.3 67 3.3 NE 7 7 4 4 1019.1 1018.0 0.0
23/07:30am 14.3 13.3 10.3 77 2.1 NE 6 7 3 4 1018.9 1017.8 0.0
23/07:00am 11.2 9.7 9.1 87 1.1 NNE 7 9 4 5 1018.5 1017.4 0.0
23/06:30am 9.5 7.7 7.3 86 1.1 NNW 6 7 3 4 1018.3 1017.2 0.0
23/06:00am 9.6 7.6 7.2 85 1.2 N 7 7 4 4 1018.1 1017.0 0.0
23/05:30am 9.3 8.6 6.9 85 1.1 CALM 0 0 0 0 1017.9 1016.8 0.0
23/05:00am 9.9 8.9 7.3 84 1.3 NNW 2 6 1 3 1017.7 1016.6 0.0
23/04:30am 9.8 7.9 6.9 82 1.4 NW 6 7 3 4 1017.6 1016.5 0.0
23/04:00am 10.6 8.9 7.5 81 1.5 NNE 6 7 3 4 1017.4 1016.3 0.0
23/03:30am 11.0 10.5 7.7 80 1.6 CALM 0 9 0 5 1017.4 1016.3 0.0
23/03:00am 10.6 10.0 7.5 81 1.5 CALM 0 0 0 0 1017.4 1016.3 0.0
23/02:30am 12.1 11.8 8.6 79 1.8 CALM 0 0 0 0 1017.6 1016.5 0.0
23/02:00am 12.2 11.9 8.7 79 1.8 CALM 0 0 0 0 1017.6 1016.5 0.0
23/01:30am 11.7 11.3 8.2 79 1.7 CALM 0 6 0 3 1018.0 1016.9 0.0
23/01:00am 12.2 11.7 7.9 75 2.1 CALM 0 0 0 0 1018.1 1017.0 0.0
23/12:30am 12.8 12.6 8.9 77 2.0 CALM 0 0 0 0 1018.2 1017.1 0.0
23/12:00am 12.9 12.7 9.0 77 2.0 CALM 0 0 0 0 1018.4 1017.3 0.0
 
Date/Time
EST
Temp
°C
App
Temp
°C
Dew
Point
°C
Rel
Hum
%
Delta-T
°C
Wind Press
QNH
hPa
Press
MSL
hPa
Rain since
9am
mm
Dir  Spd
km/h
Gust
km/h
Spd
kts
Gust
kts
22/11:30pm 13.7 12.2 8.5 71 2.6 WNW 6 7 3 4 1018.6 1017.5 0.0
22/11:00pm 14.3 13.3 8.7 69 2.9 NW 4 6 2 3 1018.8 1017.7 0.0
22/10:30pm 15.9 16.0 10.0 68 3.1 CALM 0 0 0 0 1019.0 1017.9 0.0
22/10:00pm 15.4 15.2 8.9 65 3.4 CALM 0 0 0 0 1019.2 1018.1 0.0
22/09:30pm 16.0 15.9 9.4 65 3.5 CALM 0 0 0 0 1019.1 1018.0 0.0
22/09:00pm 16.4 16.3 9.3 63 3.7 CALM 0 0 0 0 1018.9 1017.8 0.0
22/08:30pm 17.7 16.9 9.8 60 4.2 SE 4 6 2 3 1018.6 1017.5 0.0
22/08:00pm 18.8 17.7 9.8 56 4.8 SE 6 7 3 4 1018.3 1017.2 0.0
22/07:30pm 18.4 17.0 8.7 53 5.1 SE 6 7 3 4 1018.1 1017.0 0.0
22/07:00pm 20.1 18.3 9.4 50 5.8 SE 9 11 5 6 1017.9 1016.8 0.0
22/06:30pm 21.1 18.9 9.4 47 6.3 SSE 11 13 6 7 1017.6 1016.5 0.0
22/06:00pm 22.7 20.0 8.8 41 7.5 SSE 13 19 7 10 1017.3 1016.2 0.0
22/05:30pm 24.1 21.0 8.9 38 8.3 SSE 15 20 8 11 1017.1 1016.0 0.0
22/05:00pm 25.8 21.6 8.3 33 9.5 SSE 20 28 11 15 1016.8 1015.8 0.0
22/04:30pm 26.6 22.7 8.6 32 9.9 SSE 19 26 10 14 1016.6 1015.6 0.0
22/04:00pm 27.3 22.6 7.7 29 10.7 SSE 22 28 12 15 1016.3 1015.2 0.0
22/03:30pm 27.8 23.4 6.6 26 11.3 SE 19 28 10 15 1016.3 1015.2 0.0
22/03:00pm 27.6 24.7 8.0 29 10.7 SSE 13 20 7 11 1016.5 1015.4 0.0
22/02:30pm 27.7 25.0 9.0 31 10.4 S 13 22 7 12 1016.6 1015.6 0.0
22/02:00pm 26.9 22.8 7.9 30 10.3 SE 19 28 10 15 1016.9 1015.9 0.0
22/01:30pm 28.0 25.3 8.8 30 10.7 SE 13 20 7 11 1017.3 1016.2 0.0
22/01:00pm 28.1 24.8 9.4 31 10.5 SE 17 26 9 14 1017.7 1016.6 0.0
22/12:30pm 27.5 24.6 9.8 33 10.0 SE 15 24 8 13 1018.2 1017.1 0.0
22/12:00pm 27.1 25.4 9.9 34 9.7 SE 9 19 5 10 1018.6 1017.5 0.0
22/11:30am 25.3 23.2 9.6 37 8.7 NE 11 19 6 10 1019.0 1017.9 0.0
22/11:00am 25.5 23.9 10.1 38 8.6 ESE 9 17 5 9 1019.6 1018.6 0.0
22/10:30am 24.9 23.1 10.8 41 8.0 E 11 17 6 9 1020.0 1019.0 0.0
22/10:00am 24.8 23.0 12.1 45 7.3 NE 13 22 7 12 1020.3 1019.3 0.0
22/09:30am 23.2 21.5 12.5 51 6.2 ENE 13 17 7 9 1020.6 1019.5 0.0
22/09:00am 21.9 21.3 13.5 59 4.9 E 9 13 5 7 1020.6 1019.5 0.0
22/08:30am 20.7 21.2 13.9 65 4.0 SE 4 7 2 4 1020.6 1019.5 0.0
22/08:00am 18.2 18.1 13.3 73 2.8 SSW 6 7 3 4 1020.4 1019.4 0.0
22/07:30am 15.7 16.4 12.1 79 2.0 CALM 0 0 0 0 1020.0 1019.0 0.0
22/07:00am 12.4 12.6 10.5 88 1.0 CALM 0 0 0 0 1019.7 1018.7 0.0
22/06:30am 11.5 11.4 9.4 87 1.1 CALM 0 0 0 0 1019.3 1018.2 0.0
22/06:00am 11.9 12.0 10.1 89 0.9 CALM 0 0 0 0 1019.1 1018.0 0.0
22/05:30am 11.6 11.4 9.2 85 1.2 CALM 0 0 0 0 1018.9 1017.8 0.0
22/05:00am 12.0 11.9 9.6 85 1.2 CALM 0 0 0 0 1018.8 1017.7 0.0
22/04:30am 12.9 11.7 10.4 85 1.3 S 7 9 4 5 1018.7 1017.6 0.0
22/04:00am 13.1 12.9 10.5 84 1.4 S 2 7 1 4 1018.4 1017.3 0.0
22/03:30am 12.7 12.6 9.5 81 1.7 CALM 0 0 0 0 1018.2 1017.1 0.0
22/03:00am 13.5 12.4 10.5 82 1.6 N 7 9 4 5 1018.4 1017.3 0.0
22/02:30am 14.0 13.0 10.4 79 1.9 NNE 6 7 3 4 1018.3 1017.2 0.0
22/02:00am 14.6 14.9 11.0 79 1.9 CALM 0 0 0 0 1018.5 1017.4 0.0
22/01:30am 15.1 13.7 10.9 76 2.3 E 9 11 5 6 1018.6 1017.5 0.0
22/01:00am 15.7 14.6 10.7 72 2.7 NNE 7 9 4 5 1018.6 1017.5 0.0
22/12:30am 16.5 15.8 11.4 72 2.8 E 6 7 3 4 1018.6 1017.5 0.0
22/12:00am 15.7 15.6 10.7 72 2.7 ESE 2 6 1 3 1018.6 1017.5 0.0
 
Date/Time
EST
Temp
°C
App
Temp
°C
Dew
Point
°C
Rel
Hum
%
Delta-T
°C
Wind Press
QNH
hPa
Press
MSL
hPa
Rain since
9am
mm
Dir  Spd
km/h
Gust
km/h
Spd
kts
Gust
kts
21/11:30pm 16.4 16.6 10.7 69 3.1 CALM 0 0 0 0 1018.4 1017.3 0.0
21/11:00pm 16.6 17.0 11.3 71 2.9 CALM 0 0 0 0 1018.6 1017.5 0.0
21/10:30pm 17.7 16.8 11.5 67 3.4 SE 7 9 4 5 1018.6 1017.5 0.0
21/10:00pm 17.8 16.8 10.9 64 3.8 SE 7 9 4 5 1018.7 1017.6 0.0
21/09:30pm 18.7 17.5 11.5 63 4.0 SE 9 11 5 6 1018.7 1017.6 0.0
21/09:00pm 19.0 17.3 11.3 61 4.3 SE 11 13 6 7 1018.5 1017.4 0.0
21/08:30pm 19.5 17.4 11.3 59 4.6 SE 13 13 7 7 1018.3 1017.2 0.0
21/08:00pm 20.0 18.3 11.2 57 4.9 SE 11 13 6 7 1018.1 1017.0 0.0
21/07:30pm 20.8 19.5 11.2 54 5.4 SE 9 9 5 5 1017.9 1016.8 0.0
21/07:00pm 20.9 19.4 10.4 51 5.8 SSE 9 9 5 5 1017.5 1016.4 0.0
21/06:30pm 22.1 20.2 10.6 48 6.4 SE 11 13 6 7 1017.2 1016.1 0.0
21/06:00pm 23.3 21.3 10.0 43 7.4 ESE 11 13 6 7 1016.8 1015.8 0.0
21/05:30pm 25.1 22.4 10.2 39 8.4 SE 15 24 8 13 1016.3 1015.2 0.0
21/05:00pm 26.1 22.8 9.5 35 9.2 SE 17 24 9 13 1016.1 1015.0 0.0
21/04:30pm 26.9 23.5 9.3 33 9.8 SE 17 24 9 13 1016.2 1015.1 0.0
21/04:00pm 27.2 24.5 10.4 35 9.6 SE 15 22 8 12 1016.1 1015.0 0.0
21/03:30pm 27.5 24.5 10.7 35 9.6 SE 17 24 9 13 1016.1 1015.0 0.0
21/03:00pm 27.9 25.3 11.9 37 9.4 SSE 17 26 9 14 1016.3 1015.2 0.0
21/02:30pm 26.2 22.5 11.5 40 8.5 SSE 22 30 12 16 1016.5 1015.4 0.0
21/02:00pm 27.8 24.9 10.9 35 9.7 ESE 17 24 9 13 1016.6 1015.6 0.0
21/01:30pm 25.7 23.6 11.1 40 8.3 SSE 13 20 7 11 1016.9 1015.9 0.0
21/01:00pm 27.6 25.4 12.0 38 9.1 SE 15 22 8 12 1017.3 1016.2 0.0
21/12:30pm 27.1 25.2 13.1 42 8.3 SSE 15 26 8 14 1017.7 1016.6 0.0
21/12:00pm 27.1 25.7 13.4 42 8.2 ESE 13 20 7 11 1018.2 1017.1 0.0
21/11:30am 24.6 22.7 12.9 48 6.9 SE 15 20 8 11 1018.9 1017.8 0.0
21/11:00am 24.1 23.2 14.8 56 5.6 SSE 13 17 7 9 1019.4 1018.3 0.0
21/10:30am 24.9 24.6 15.5 56 5.8 E 11 20 6 11 1019.7 1018.7 0.0
21/10:00am 23.3 22.6 15.4 61 4.8 ESE 13 20 7 11 1019.8 1018.8 0.0
21/09:30am 23.1 22.4 15.4 62 4.7 E 13 19 7 10 1019.9 1018.9 0.0
21/09:00am 21.8 20.7 15.4 67 3.9 E 15 20 8 11 1019.8 1018.8 0.0
21/08:30am 20.2 19.2 15.6 75 2.8 E 15 20 8 11 1019.8 1018.8 0.0
21/08:06am 18.1 19.3 16.8 92 0.8 ESE 6 9 3 5 1019.5 1018.5 0.0
21/08:00am 17.1 18.5 16.3 95 0.5 E 4 7 2 4 1019.5 1018.5 0.0
21/07:55am 16.5 17.6 15.7 95 0.5 ENE 4 7 2 4 1019.5 1018.5 0.0
21/07:30am 15.3 15.4 14.5 95 0.5 SE 7 11 4 6 1019.3 1018.2 0.0
21/07:00am 14.1 14.0 13.3 95 0.4 SSE 6 7 3 4 1019.1 1018.0 0.0
21/06:30am 13.1 12.5 12.3 95 0.4 SSE 7 9 4 5 1018.7 1017.6 0.0
21/06:16am 12.9 12.2 12.1 95 0.4 S 7 9 4 5 1018.7 1017.6 0.0
21/06:14am 12.8 12.1 12.0 95 0.4 S 7 9 4 5 1018.7 1017.6 0.0
21/06:00am 12.5 11.7 11.7 95 0.4 SSW 7 9 4 5 1018.5 1017.4 0.0
21/05:30am 11.8 12.0 10.5 92 0.7 CALM 0 0 0 0 1018.0 1016.9 0.0
21/05:09am 11.3 11.2 9.6 89 0.9 CALM 0 0 0 0 1017.9 1016.8 0.0
21/05:03am 11.5 11.5 9.9 90 0.8 CALM 0 0 0 0 1017.9 1016.8 0.0
21/05:00am 11.7 11.8 10.1 90 0.8 CALM 0 0 0 0 1017.9 1016.8 0.0
21/04:41am 11.9 12.0 10.3 90 0.8 CALM 0 0 0 0 1017.7 1016.6 0.0
21/04:31am 11.8 11.9 10.2 90 0.8 CALM 0 0 0 0 1017.7 1016.6 0.0
21/04:30am 11.8 11.9 10.2 90 0.8 CALM 0 0 0 0 1017.7 1016.6 0.0
21/04:00am 12.2 12.4 10.6 90 0.8 CALM 0 0 0 0 1017.6 1016.5 0.0
21/03:55am 12.2 12.5 10.8 91 0.7 CALM 0 0 0 0 1017.5 1016.4 0.0
21/03:32am 12.0 12.2 10.4 90 0.8 CALM 0 0 0 0 1017.5 1016.4 0.0
21/03:30am 12.3 12.5 10.7 90 0.8 CALM 0 0 0 0 1017.5 1016.4 0.0
21/03:00am 11.9 12.0 10.1 89 0.9 CALM 0 0 0 0 1017.5 1016.4 0.0
21/02:30am 12.4 12.6 10.6 89 0.9 CALM 0 0 0 0 1017.6 1016.5 0.0
21/02:00am 13.3 13.8 11.7 90 0.9 CALM 0 0 0 0 1017.8 1016.7 0.0
21/01:30am 13.1 13.5 11.2 88 1.0 CALM 0 0 0 0 1018.1 1017.0 0.0
21/01:00am 13.7 13.9 11.9 89 1.0 SW 2 6 1 3 1018.2 1017.1 0.0
21/12:30am 13.7 14.3 11.8 88 1.0 CALM 0 9 0 5 1018.4 1017.3 0.0
21/12:00am 13.2 13.4 10.7 85 1.3 CALM 0 0 0 0 1018.6 1017.5 0.0
 
Date/Time
EST
Temp
°C
App
Temp
°C
Dew
Point
°C
Rel
Hum
%
Delta-T
°C
Wind Press
QNH
hPa
Press
MSL
hPa
Rain since
9am
mm
Dir  Spd
km/h
Gust
km/h
Spd
kts
Gust
kts
20/11:30pm 14.1 14.7 11.8 86 1.3 CALM 0 0 0 0 1018.7 1017.6 0.0
20/11:00pm 14.3 14.9 12.0 86 1.3 CALM 0 0 0 0 1018.6 1017.5 0.0
20/10:30pm 15.2 16.0 12.7 85 1.4 CALM 0 0 0 0 1018.8 1017.7 0.0
20/10:00pm 15.7 16.5 12.5 81 1.8 CALM 0 0 0 0 1019.0 1017.9 0.0
20/09:30pm 16.7 17.8 13.6 82 1.8 CALM 0 0 0 0 1019.0 1017.9 0.0
20/09:00pm 16.8 17.8 13.1 79 2.1 CALM 0 0 0 0 1018.6 1017.5 0.0
20/08:30pm 16.6 17.3 12.2 75 2.5 CALM 0 0 0 0 1018.4 1017.3 0.0
20/08:00pm 16.6 16.9 12.2 75 2.4 SE 2 7 1 4 1018.3 1017.2 0.0
20/07:30pm 17.9 18.3 12.6 71 3.0 WNW 2 6 1 3 1018.2 1017.1 0.0
20/07:00pm 19.6 20.4 12.6 64 4.0 CALM 0 0 0 0 1017.7 1016.6 0.0
20/06:30pm 20.5 20.4 13.2 63 4.2 ESE 6 9 3 5 1017.4 1016.3 0.0
20/06:00pm 21.2 20.9 13.4 61 4.5 ENE 7 11 4 6 1017.1 1016.0 0.0
20/05:30pm 21.8 21.2 13.4 59 4.9 E 9 13 5 7 1016.6 1015.6 0.0
20/05:00pm 21.9 20.1 13.3 58 5.0 SE 15 22 8 12 1017.1 1016.0 0.0
20/04:30pm 21.5 17.0 12.6 57 5.1 SE 28 39 15 21 1016.7 1015.7 0.0
20/04:00pm 21.8 16.8 13.4 59 4.9 SSE 32 44 17 24 1016.8 1015.8 0.0
20/03:53pm 23.7 21.6 13.6 53 6.0 SE 17 39 9 21 1016.7 1015.7 0.0
20/03:30pm 25.7 22.9 9.9 37 8.9 ESE 15 20 8 11 1015.8 1014.7 0.0
20/03:00pm 27.5 23.0 10.2 34 9.8 ESE 24 33 13 18 1015.5 1014.4 0.0
20/02:30pm 25.5 20.4 10.5 39 8.5 SE 28 39 15 21 1015.5 1014.4 0.0
20/02:00pm 26.9 23.5 9.3 33 9.8 SSE 17 39 9 21 1015.4 1014.3 0.0
20/01:30pm 29.3 27.8 11.8 34 10.3 S 11 17 6 9 1015.4 1014.3 0.0
20/01:00pm 29.5 28.3 12.9 36 9.9 N 11 15 6 8 1016.0 1014.9 0.0
20/12:30pm 28.6 28.6 14.1 41 8.8 NNW 7 13 4 7 1016.8 1015.8 0.0
20/12:00pm 28.6 28.6 14.1 41 8.8 NNE 7 15 4 8 1017.5 1016.4 0.0
20/11:30am 27.6 26.9 14.3 44 8.1 NNE 11 20 6 11 1018.2 1017.1 0.0
20/11:00am 27.6 27.7 15.6 48 7.4 N 9 20 5 11 1018.8 1017.7 0.0
20/10:30am 25.8 25.2 14.6 50 6.8 N 11 17 6 9 1019.3 1018.2 0.0
20/10:00am 25.4 25.1 15.4 54 6.1 NE 11 17 6 9 1019.6 1018.6 0.0
20/09:30am 24.6 23.7 15.8 58 5.4 NE 15 20 8 11 1019.9 1018.9 0.0

Other Formats:

Comma delimited format used in spreadsheet applications
http://www.bom.gov.au/fwo/IDQ60801/IDQ60801.94515.axf

JavaScript Object Notation format (JSON) in row-major order
http://www.bom.gov.au/fwo/IDQ60801/IDQ60801.94515.json